首页
METAR-TAF:

METAR-TAF

机场 :

Branson, 密蘇里州, 美国

纬度: 36-31-55N, 经度: 093-12-02W, 海拔: 397米

当前天气观测

该预报发布于21分钟前的05:35 UTC
风速4节,风向西南
温度 6°C
湿度 93%
气压 1006 hPa
能見度: 16.1公里
多云层高于2700英尺

METAR: KBBG 260535Z AUTO 23004KT 10SM BKN027 06/05 A2972 RMK AO2

时间: 23:56 (05:56 UTC)

预报

该预报发布于27分钟前的05:29 UTC
预报有效从26日的 06点(UTC)到 27日的 06点(UTC)
风速6节,风向西
能見度: 10公里
多云层高于3500英尺
从 26日的 0700点(UTC)
风速6节,风向西
能見度: 10公里
多云层高于2000英尺
从 26日的 0800点(UTC)
风速7节,风向西
能見度: 10公里
多云层高于1300英尺
从 26日的 1200点(UTC)
风速8节,风向西
能見度: 10公里
多云层高于800英尺
从 26日的 1800点(UTC)
风速8节,风向西转西北
能見度: 10公里
散云层高于900英尺

TAF: KBBG 260529Z 2606/2706 26006KT P6SM BKN035 FM260700 26006KT P6SM BKN020 FM260800 26007KT P6SM BKN013 FM261200 28008KT P6SM BKN008 FM261800 29008KT P6SM SCT009

超过4000个机场的气象观测和天气预报(METAR&TAF报告)。

可查询的气象台以黄色和红色小点在地图上表示。

将鼠标移到小点上方,可查看气象台名称。

然后点击查看天气观测和预报。

如需切换地图:点击带黑十字的绿色按钮放大地图;点击带横线的绿色按钮缩小地图;或者点击绿色箭头查看邻近地区的地图。


METAR-TAF: